createdAt,value
2022-09-04T00:02:59.835Z,3.20
2022-09-04T00:05:48.484Z,3.28
2022-09-04T00:12:11.536Z,3.15
2022-09-04T00:15:00.441Z,3.20
2022-09-04T00:17:48.317Z,3.20
2022-09-04T01:20:11.728Z,2.15
2022-09-04T01:23:42.662Z,2.25
2022-09-04T01:27:06.734Z,2.30
2022-09-04T01:30:04.280Z,2.13
2022-09-04T01:33:12.022Z,2.70
2022-09-04T01:36:25.065Z,2.60
2022-09-04T01:39:12.502Z,3.03
2022-09-04T01:42:03.497Z,2.95
2022-09-04T01:44:35.884Z,3.80
2022-09-04T01:47:45.321Z,3.20
2022-09-04T01:50:43.882Z,3.13
2022-09-04T01:53:26.381Z,3.10
2022-09-04T01:56:21.519Z,3.30
2022-09-04T01:59:15.979Z,2.72
2022-09-04T02:02:21.003Z,2.75
2022-09-04T02:05:34.982Z,3.10
2022-09-04T02:08:35.754Z,2.83
2022-09-04T02:11:11.061Z,3.40
2022-09-04T02:14:12.758Z,3.30
2022-09-04T02:17:24.865Z,2.88
2022-09-04T02:20:30.201Z,3.22
2022-09-04T02:23:22.134Z,3.05
2022-09-04T02:26:18.121Z,2.88
2022-09-04T02:29:17.098Z,3.15
2022-09-04T02:32:09.633Z,2.78
2022-09-04T02:35:06.233Z,3.40
2022-09-04T02:37:46.162Z,3.80
2022-09-04T02:43:11.928Z,3.00
2022-09-04T02:46:23.464Z,3.30
2022-09-04T02:49:07.770Z,3.58
2022-09-04T02:52:05.521Z,4.13
2022-09-04T02:55:24.410Z,3.05
2022-09-04T02:58:11.535Z,3.72
2022-09-04T03:01:11.168Z,4.30
2022-09-04T03:04:17.534Z,4.55
2022-09-04T03:07:06.398Z,5.22
2022-09-04T03:10:14.325Z,5.60
2022-09-04T03:13:41.463Z,5.22
2022-09-04T03:17:16.503Z,5.88
2022-09-04T03:23:18.830Z,6.13
2022-09-04T03:26:18.086Z,5.13
2022-09-04T03:29:29.974Z,6.20
2022-09-04T03:35:24.761Z,6.03
2022-09-04T03:38:07.126Z,6.88
2022-09-04T03:40:53.035Z,6.70
2022-09-04T03:44:28.224Z,7.22
2022-09-04T03:47:21.283Z,8.10
2022-09-04T03:50:28.981Z,6.82
2022-09-04T03:53:24.028Z,7.63
2022-09-04T03:56:39.264Z,7.15
2022-09-04T03:59:43.267Z,8.77
2022-09-04T04:02:49.484Z,9.40
2022-09-04T04:05:48.638Z,10.00
2022-09-04T04:11:30.566Z,9.40
2022-09-04T04:14:41.934Z,8.10
2022-09-04T04:17:34.003Z,8.68
2022-09-04T04:20:32.102Z,8.95
2022-09-04T04:23:41.651Z,9.43
2022-09-04T04:52:24.077Z,7.68
2022-09-04T04:55:19.323Z,5.70
2022-09-04T04:58:08.221Z,7.38
2022-09-04T05:00:41.648Z,6.25
2022-09-04T05:03:41.035Z,6.70
2022-09-04T05:06:29.984Z,5.93
2022-09-04T05:09:18.508Z,6.90
2022-09-04T05:12:01.338Z,7.88
2022-09-04T05:15:10.315Z,8.07
2022-09-04T05:18:02.255Z,7.68
2022-09-04T05:20:39.073Z,8.32
2022-09-04T05:23:29.958Z,7.85
2022-09-04T05:26:13.902Z,8.15
2022-09-04T05:29:11.653Z,7.80
2022-09-04T05:32:11.390Z,6.90
2022-09-04T05:35:20.757Z,7.38
2022-09-04T05:37:59.174Z,6.50
2022-09-04T05:41:04.431Z,7.50
2022-09-04T05:43:59.211Z,6.60
2022-09-04T05:46:54.103Z,6.10
2022-09-04T05:49:31.610Z,7.40
2022-09-04T05:52:33.578Z,7.78
2022-09-04T05:55:31.968Z,6.85
2022-09-04T05:58:38.510Z,7.60
2022-09-04T06:01:42.152Z,6.80
2022-09-04T06:04:27.617Z,6.35
2022-09-04T06:07:13.958Z,6.47
2022-09-04T06:09:59.920Z,6.70
2022-09-04T06:12:57.825Z,7.43
2022-09-04T06:15:58.523Z,6.13
2022-09-04T06:18:47.707Z,6.05
2022-09-04T06:21:20.364Z,6.50
2022-09-04T06:24:15.764Z,6.63
2022-09-04T06:26:48.807Z,6.68
2022-09-04T06:29:42.978Z,6.70
2022-09-04T06:32:32.438Z,7.47
2022-09-04T06:35:34.573Z,7.40
2022-09-04T06:38:20.866Z,6.28
2022-09-04T06:41:32.956Z,6.10
2022-09-04T06:44:02.743Z,6.70
2022-09-04T06:46:39.182Z,6.60
2022-09-04T06:49:29.672Z,6.38
2022-09-04T06:52:39.057Z,6.90
2022-09-04T06:55:33.685Z,6.45
2022-09-04T06:58:22.171Z,6.57
2022-09-04T07:00:55.238Z,6.80
2022-09-04T07:03:43.134Z,6.93
2022-09-04T07:06:18.710Z,6.30
2022-09-04T07:09:00.137Z,5.47
2022-09-04T07:11:59.088Z,5.72
2022-09-04T07:14:46.254Z,5.70
2022-09-04T07:17:34.408Z,6.35
2022-09-04T07:20:26.119Z,5.50
2022-09-04T07:23:31.112Z,5.82
2022-09-04T07:26:06.530Z,4.65
2022-09-04T07:29:07.848Z,5.03
2022-09-04T07:31:42.239Z,5.13
2022-09-04T07:34:33.414Z,5.47
2022-09-04T07:37:23.614Z,5.90
2022-09-04T07:40:19.988Z,5.05
2022-09-04T07:43:06.299Z,5.47
2022-09-04T07:45:51.492Z,4.78
2022-09-04T07:48:44.199Z,5.50
2022-09-04T07:51:15.740Z,4.35
2022-09-04T07:53:57.880Z,4.10
2022-09-04T07:56:36.827Z,4.10
2022-09-04T07:59:32.897Z,4.18
2022-09-04T08:02:21.106Z,4.10
2022-09-04T08:04:57.211Z,3.63
2022-09-04T08:07:33.230Z,3.50
2022-09-04T08:10:42.592Z,3.40
2022-09-04T08:13:33.829Z,3.15
2022-09-04T08:16:10.460Z,3.55
2022-09-04T08:18:55.484Z,3.28
2022-09-04T08:21:31.563Z,3.45
2022-09-04T08:24:13.356Z,3.35
2022-09-04T08:27:22.247Z,3.50
2022-09-04T08:30:05.204Z,3.25
2022-09-04T08:32:41.372Z,3.15
2022-09-04T08:35:35.724Z,2.85
2022-09-04T08:38:30.073Z,2.70
2022-09-04T08:41:13.508Z,2.17
2022-09-04T08:44:09.717Z,2.13
2022-09-04T08:46:39.636Z,1.77
2022-09-04T08:49:28.855Z,1.63
2022-09-04T08:52:14.697Z,1.80
2022-09-04T08:54:44.542Z,1.30
2022-09-04T08:57:36.201Z,1.70
2022-09-04T09:00:07.733Z,1.73
2022-09-04T09:02:49.905Z,1.50
2022-09-04T09:05:37.930Z,1.70
2022-09-04T09:08:41.602Z,1.63
2022-09-04T09:11:17.276Z,1.50
2022-09-04T09:14:38.756Z,1.27
2022-09-04T09:17:14.792Z,1.33
2022-09-04T09:20:07.017Z,1.25
2022-09-04T09:22:38.635Z,1.40
2022-09-04T09:25:24.868Z,1.65
2022-09-04T09:28:15.187Z,1.50
2022-09-04T09:30:59.035Z,1.17
2022-09-04T09:33:34.707Z,1.30
2022-09-04T09:36:22.508Z,1.30
2022-09-04T09:39:01.514Z,1.30
2022-09-04T09:42:03.652Z,1.30
2022-09-04T09:45:02.804Z,1.33
2022-09-04T09:47:51.066Z,1.40
2022-09-04T09:50:49.672Z,1.30
2022-09-04T09:53:57.369Z,1.30
2022-09-04T09:56:57.180Z,1.40
2022-09-04T09:59:39.641Z,1.33
2022-09-04T10:02:38.427Z,1.42
2022-09-04T10:05:17.020Z,1.33
2022-09-04T10:08:31.758Z,1.75
2022-09-04T10:11:40.503Z,1.40
2022-09-04T10:14:07.359Z,1.98
2022-09-04T10:17:22.941Z,1.80
2022-09-04T10:20:13.045Z,2.25
2022-09-04T10:22:42.846Z,2.50
2022-09-04T10:25:26.050Z,1.77
2022-09-04T10:28:11.341Z,2.00
2022-09-04T10:31:00.175Z,2.33
2022-09-04T10:34:05.250Z,2.20
2022-09-04T10:36:58.196Z,1.85
2022-09-04T10:40:21.132Z,2.40
2022-09-04T10:43:25.276Z,2.30
2022-09-04T10:46:01.885Z,2.10
2022-09-04T10:48:28.951Z,1.85
2022-09-04T10:51:21.184Z,1.85
2022-09-04T10:54:17.061Z,1.65
2022-09-04T10:57:04.794Z,1.50
2022-09-04T10:59:59.433Z,1.75
2022-09-04T11:02:43.673Z,1.73
2022-09-04T11:05:52.588Z,1.60
2022-09-04T11:08:43.142Z,1.40
2022-09-04T11:11:41.010Z,1.67
2022-09-04T11:14:37.482Z,1.52
2022-09-04T11:17:04.564Z,1.17
2022-09-04T11:19:46.103Z,1.13
2022-09-04T11:22:40.786Z,1.10
2022-09-04T11:25:25.871Z,1.10
2022-09-04T11:28:08.066Z,1.00
2022-09-04T11:30:39.288Z,0.85
2022-09-04T11:33:17.978Z,0.77
2022-09-04T11:35:57.725Z,0.70
2022-09-04T11:38:43.979Z,0.80
2022-09-04T11:41:43.607Z,0.73
2022-09-04T11:45:06.770Z,0.80
2022-09-04T11:47:58.588Z,0.90
2022-09-04T11:51:00.557Z,1.02
2022-09-04T11:53:45.274Z,0.95
2022-09-04T11:56:24.563Z,1.20
2022-09-04T11:59:29.173Z,1.60
2022-09-04T12:02:32.831Z,1.20
2022-09-04T12:05:08.368Z,1.40
2022-09-04T12:10:28.383Z,1.70
2022-09-04T12:15:48.376Z,1.52
2022-09-04T12:21:04.825Z,1.63
2022-09-04T12:24:09.397Z,1.27
2022-09-04T12:27:01.722Z,1.30
2022-09-04T12:29:31.758Z,1.48
2022-09-04T12:32:32.164Z,1.33
2022-09-04T12:35:44.043Z,1.25
2022-09-04T12:39:01.581Z,1.63
2022-09-04T12:41:34.402Z,1.90
2022-09-04T12:44:20.173Z,1.70
2022-09-04T12:47:14.175Z,1.50
2022-09-04T12:49:59.026Z,1.60
2022-09-04T12:52:41.671Z,1.55
2022-09-04T12:55:23.462Z,1.90
2022-09-04T12:58:21.364Z,2.00
2022-09-04T13:01:10.988Z,1.70
2022-09-04T13:03:55.939Z,2.03
2022-09-04T13:07:01.974Z,1.92
2022-09-04T13:09:53.331Z,2.50
2022-09-04T13:12:45.723Z,2.60
2022-09-04T13:15:28.752Z,2.15
2022-09-04T13:18:15.777Z,1.90
2022-09-04T13:20:48.884Z,2.00
2022-09-04T13:23:46.332Z,1.90
2022-09-04T13:26:26.098Z,2.10
2022-09-04T13:32:17.212Z,2.50
2022-09-04T13:35:08.579Z,2.00
2022-09-04T13:37:59.892Z,1.73
2022-09-04T13:41:08.168Z,2.08
2022-09-04T13:43:37.864Z,2.22
2022-09-04T13:46:11.809Z,2.20
2022-09-04T13:48:52.186Z,2.13
2022-09-04T13:51:33.206Z,2.13
2022-09-04T13:54:19.097Z,1.98
2022-09-04T13:56:58.773Z,2.00
2022-09-04T13:59:25.942Z,1.90
2022-09-04T14:01:57.535Z,1.73
2022-09-04T14:04:29.801Z,2.08
2022-09-04T14:07:02.627Z,1.85
2022-09-04T14:09:37.193Z,1.88
2022-09-04T14:12:20.125Z,2.22
2022-09-04T14:15:21.714Z,2.00
2022-09-04T14:18:16.770Z,2.30
2022-09-04T14:21:01.029Z,2.22
2022-09-04T14:23:56.611Z,2.83
2022-09-04T14:26:57.920Z,2.25
2022-09-04T14:29:32.662Z,2.58
2022-09-04T14:32:11.625Z,2.40
2022-09-04T14:35:02.362Z,2.92
2022-09-04T14:37:48.470Z,3.00
2022-09-04T14:40:19.493Z,3.17
2022-09-04T14:42:58.207Z,2.67
2022-09-04T14:45:52.037Z,3.20
2022-09-04T14:48:24.327Z,2.80
2022-09-04T14:50:54.653Z,2.85
2022-09-04T14:53:32.035Z,2.80
2022-09-04T14:56:07.823Z,3.17
2022-09-04T14:58:37.995Z,3.63
2022-09-04T15:01:19.183Z,2.60
2022-09-04T15:04:14.089Z,3.30
2022-09-04T15:07:10.430Z,3.25
2022-09-04T15:09:54.453Z,3.53
2022-09-04T15:13:07.716Z,3.10
2022-09-04T15:16:12.004Z,3.20
2022-09-04T15:19:31.592Z,3.45
2022-09-04T15:26:05.278Z,3.47
2022-09-04T15:28:48.782Z,3.60
2022-09-04T15:31:19.090Z,3.35
2022-09-04T15:33:49.003Z,3.08
2022-09-04T15:36:23.952Z,3.53
2022-09-04T15:39:43.117Z,3.10
2022-09-04T15:42:13.579Z,3.85
2022-09-04T15:44:52.587Z,3.22
2022-09-04T15:47:44.860Z,3.80
2022-09-04T15:50:50.461Z,3.58
2022-09-04T15:53:23.960Z,3.33
2022-09-04T15:56:46.160Z,4.03
2022-09-04T15:59:18.757Z,3.67
2022-09-04T16:02:36.470Z,3.47
2022-09-04T16:05:24.168Z,3.40
2022-09-04T16:08:28.715Z,3.60
2022-09-04T16:11:19.159Z,3.58
2022-09-04T16:14:00.654Z,4.07
2022-09-04T16:16:53.217Z,3.80
2022-09-04T16:19:50.106Z,4.05
2022-09-04T16:22:46.558Z,4.05
2022-09-04T16:25:29.324Z,3.67
2022-09-04T16:28:02.633Z,3.78
2022-09-04T16:30:33.374Z,4.28
2022-09-04T16:33:04.761Z,3.50
2022-09-04T16:35:43.671Z,3.97
2022-09-04T16:38:23.933Z,4.10
2022-09-04T16:41:14.601Z,3.90
2022-09-04T16:44:26.186Z,3.38
2022-09-04T16:47:09.203Z,3.45
2022-09-04T16:49:55.033Z,3.90
2022-09-04T16:53:13.134Z,3.63
2022-09-04T16:56:02.604Z,3.97
2022-09-04T16:58:57.206Z,3.53
2022-09-04T17:01:41.341Z,3.70
2022-09-04T17:04:26.940Z,3.42
2022-09-04T17:07:09.374Z,4.03
2022-09-04T17:09:57.100Z,3.63
2022-09-04T17:12:52.761Z,3.53
2022-09-04T17:16:04.247Z,3.72
2022-09-04T17:18:31.587Z,3.80
2022-09-04T17:28:58.184Z,3.75
2022-09-04T17:29:16.213Z,4.20
2022-09-04T17:31:17.563Z,3.58
2022-09-04T17:40:44.054Z,3.65
2022-09-04T17:40:52.364Z,3.90
2022-09-04T17:40:55.086Z,4.10
2022-09-04T17:43:36.853Z,4.35
2022-09-04T17:48:50.803Z,3.97
2022-09-04T17:51:23.986Z,4.30
2022-09-04T17:53:58.532Z,4.32
2022-09-04T17:56:31.037Z,4.10
2022-09-04T17:59:08.388Z,4.57
2022-09-04T18:02:01.630Z,4.10
2022-09-04T18:05:17.409Z,4.03
2022-09-04T18:08:09.831Z,4.03
2022-09-04T18:10:57.953Z,4.22
2022-09-04T18:13:40.745Z,4.32
2022-09-04T18:16:16.373Z,4.95
2022-09-04T18:18:51.235Z,4.97
2022-09-04T18:21:31.528Z,4.82
2022-09-04T18:24:01.454Z,5.20
2022-09-04T18:26:41.100Z,5.18
2022-09-04T18:32:09.950Z,4.93
2022-09-04T18:37:17.801Z,4.43
2022-09-04T18:37:19.827Z,4.28
2022-09-04T18:38:42.194Z,4.07
2022-09-04T18:47:41.598Z,4.47
2022-09-04T18:50:15.751Z,4.78
2022-09-04T18:50:38.071Z,4.82
2022-09-04T18:53:27.119Z,4.88
2022-09-04T18:55:54.421Z,5.00
2022-09-04T18:58:47.891Z,4.97
2022-09-04T19:01:32.287Z,4.95
2022-09-04T19:04:28.536Z,4.65
2022-09-04T19:07:07.834Z,5.07
2022-09-04T19:09:59.707Z,5.35
2022-09-04T19:12:47.124Z,5.22
2022-09-04T19:15:36.845Z,5.18
2022-09-04T19:20:50.892Z,4.53
2022-09-04T19:23:30.433Z,4.30
2022-09-04T19:26:06.692Z,5.40
2022-09-04T19:28:53.254Z,4.82
2022-09-04T19:31:34.226Z,4.63
2022-09-04T19:34:41.501Z,4.82
2022-09-04T19:38:43.254Z,5.00
2022-09-04T19:46:04.309Z,5.53
2022-09-04T19:46:15.612Z,5.47
2022-09-04T19:46:44.033Z,5.30
2022-09-04T19:50:30.673Z,5.25
2022-09-04T19:53:36.657Z,5.30
2022-09-04T19:55:39.304Z,5.50
2022-09-04T19:58:11.387Z,5.18
2022-09-04T20:00:49.536Z,5.07
2022-09-04T20:03:29.786Z,5.20
2022-09-04T20:06:20.435Z,5.20
2022-09-04T20:09:33.184Z,4.95
2022-09-04T20:12:21.923Z,4.45
2022-09-04T20:14:55.716Z,4.68
2022-09-04T20:17:40.218Z,4.90
2022-09-04T20:20:25.345Z,5.05
2022-09-04T20:23:34.629Z,4.47
2022-09-04T20:26:20.717Z,4.60
2022-09-04T20:28:57.422Z,5.03
2022-09-04T20:31:36.042Z,4.50
2022-09-04T20:34:19.976Z,5.22
2022-09-04T20:36:52.306Z,5.07
2022-09-04T20:39:33.754Z,4.72
2022-09-04T20:42:18.463Z,4.78
2022-09-04T20:48:24.359Z,4.70
2022-09-04T20:52:43.656Z,4.88
2022-09-04T20:52:54.405Z,5.13
2022-09-04T20:53:39.159Z,5.45
2022-09-04T20:57:27.031Z,4.90
2022-09-04T21:03:10.270Z,5.30
2022-09-04T21:03:11.237Z,5.32
2022-09-04T21:05:32.823Z,5.47
2022-09-04T21:08:06.751Z,5.50
2022-09-04T21:10:47.025Z,4.85
2022-09-04T21:13:24.988Z,5.25
2022-09-04T21:16:18.398Z,4.95
2022-09-04T21:19:29.146Z,4.32
2022-09-04T21:22:28.979Z,4.53
2022-09-04T21:25:26.261Z,5.22
2022-09-04T21:27:52.979Z,4.97
2022-09-04T21:30:50.209Z,4.20
2022-09-04T21:36:26.412Z,4.78
2022-09-04T21:39:02.105Z,4.82
2022-09-04T21:42:16.668Z,4.70
2022-09-04T21:45:03.223Z,5.75
2022-09-04T21:47:50.536Z,5.35
2022-09-04T21:50:39.922Z,5.18
2022-09-04T21:53:31.966Z,4.88
2022-09-04T21:57:23.910Z,4.50
2022-09-04T22:02:43.609Z,4.30
2022-09-04T22:02:46.085Z,5.28
2022-09-04T22:05:38.945Z,5.43
2022-09-04T22:13:32.066Z,4.68
2022-09-04T22:13:43.500Z,5.10
2022-09-04T22:14:59.545Z,4.80
2022-09-04T22:17:42.771Z,4.90
2022-09-04T22:20:51.541Z,4.80
2022-09-04T22:23:33.715Z,4.65
2022-09-04T22:26:35.479Z,5.40
2022-09-04T22:29:08.077Z,5.80
2022-09-04T22:32:01.072Z,5.25
2022-09-04T22:34:47.934Z,5.15
2022-09-04T22:37:39.383Z,5.60
2022-09-04T22:40:18.989Z,5.63
2022-09-04T22:43:13.016Z,4.97
2022-09-04T22:45:45.683Z,5.28
2022-09-04T22:48:15.304Z,5.40
2022-09-04T22:51:17.800Z,5.63
2022-09-04T22:54:06.039Z,5.90
2022-09-04T22:57:05.284Z,5.78
2022-09-04T22:59:47.984Z,5.57
2022-09-04T23:04:21.436Z,4.63
2022-09-04T23:11:03.086Z,4.80
2022-09-04T23:13:59.885Z,4.88
2022-09-04T23:15:28.968Z,4.85
2022-09-04T23:20:30.333Z,4.90
